Time;durP1;ratioP1;P1;durP2;ratioP2;P2;SDS_P1;SDS_P2;PMS_P1;PMS_P2;Temp;Humidity;BMP_temperature;BMP_pressure;BME280_temperature;BME280_humidity;BME280_pressure;Samples;Min_cycle;Max_cycle;Signal;HPM_P1;HPM_P2
2023/12/01 00:01:53;;;;;;;7.18;4.10;;;5.30;92.70;;;;;;5021785;28;20202;-44
2023/12/01 00:04:21;;;;;;;8.30;4.97;;;5.20;92.60;;;;;;5024889;28;20217;-46
2023/12/01 00:06:49;;;;;;;5.25;4.30;;;5.20;92.60;;;;;;5015998;28;20205;-45
2023/12/01 00:09:17;;;;;;;6.78;5.00;;;5.20;92.60;;;;;;5028271;28;20295;-46
2023/12/01 00:11:45;;;;;;;5.45;4.35;;;5.20;92.70;;;;;;5015933;28;20248;-45
2023/12/01 00:14:15;;;;;;;8.75;4.88;;;5.20;92.60;;;;;;5024451;28;20213;-46
2023/12/01 00:16:43;;;;;;;5.95;4.53;;;5.20;92.60;;;;;;5017419;28;20231;-44
2023/12/01 00:19:11;;;;;;;8.70;5.53;;;5.20;92.60;;;;;;5021586;28;20630;-43
2023/12/01 00:21:39;;;;;;;5.90;4.68;;;5.20;92.60;;;;;;5023879;28;20228;-44
2023/12/01 00:24:07;;;;;;;6.88;5.03;;;5.20;92.60;;;;;;5024311;28;20221;-45
2023/12/01 00:26:35;;;;;;;7.07;4.57;;;5.20;92.60;;;;;;5011897;28;20194;-44
2023/12/01 00:29:03;;;;;;;6.18;4.15;;;5.20;92.60;;;;;;5016830;28;20222;-43
2023/12/01 00:31:33;;;;;;;7.03;4.30;;;5.20;92.60;;;;;;5013587;28;20655;-44
2023/12/01 00:34:01;;;;;;;7.28;5.00;;;5.20;92.60;;;;;;5024546;28;20330;-46
2023/12/01 00:36:29;;;;;;;4.93;3.75;;;5.20;92.60;;;;;;5022066;28;20672;-43
2023/12/01 00:38:57;;;;;;;5.82;4.07;;;5.20;92.60;;;;;;5011512;28;20710;-44
2023/12/01 00:41:25;;;;;;;6.80;4.45;;;5.20;92.60;;;;;;5018846;28;20193;-45
2023/12/01 00:43:53;;;;;;;7.32;4.45;;;5.20;92.60;;;;;;5021277;28;20229;-44
2023/12/01 00:46:21;;;;;;;7.72;5.13;;;5.20;92.60;;;;;;5029278;28;20209;-45
2023/12/01 00:48:50;;;;;;;5.60;4.32;;;5.20;92.60;;;;;;5031280;28;20227;-43
2023/12/01 00:51:19;;;;;;;6.72;4.30;;;5.20;92.60;;;;;;5016366;28;20210;-47
2023/12/01 00:53:48;;;;;;;6.43;4.70;;;5.20;92.60;;;;;;5028087;28;20229;-45
2023/12/01 00:56:16;;;;;;;8.45;5.53;;;5.20;92.60;;;;;;5021886;28;20227;-43
2023/12/01 00:58:44;;;;;;;6.63;4.57;;;5.20;92.60;;;;;;5028945;28;20245;-44
2023/12/01 01:01:12;;;;;;;6.68;4.20;;;5.20;92.60;;;;;;5028039;28;20209;-45
2023/12/01 01:03:41;;;;;;;7.22;4.20;;;5.20;92.60;;;;;;5029269;28;20299;-44
2023/12/01 01:06:11;;;;;;;7.03;4.40;;;5.20;92.60;;;;;;5029988;28;20613;-45
2023/12/01 01:08:39;;;;;;;6.10;4.80;;;5.20;92.60;;;;;;5032175;28;20221;-45
2023/12/01 01:11:07;;;;;;;6.85;4.63;;;5.20;92.60;;;;;;5011066;28;20265;-45
2023/12/01 01:13:35;;;;;;;9.13;5.63;;;5.20;92.60;;;;;;5029498;28;20638;-45
2023/12/01 01:16:03;;;;;;;7.35;4.90;;;5.20;92.60;;;;;;5028117;28;20203;-48
2023/12/01 01:18:31;;;;;;;6.97;4.70;;;5.20;92.60;;;;;;5025163;28;20217;-44
2023/12/01 01:20:59;;;;;;;6.80;4.18;;;5.20;92.60;;;;;;5016989;28;20585;-44
2023/12/01 01:23:29;;;;;;;7.38;5.53;;;5.20;92.50;;;;;;5019799;28;20209;-44
2023/12/01 01:25:57;;;;;;;6.78;4.70;;;5.20;92.60;;;;;;5020279;28;20209;-47
2023/12/01 01:28:25;;;;;;;8.32;5.18;;;5.20;92.50;;;;;;5029494;28;20220;-47
2023/12/01 01:30:53;;;;;;;6.97;5.13;;;5.20;92.50;;;;;;5026029;28;20194;-46
2023/12/01 01:33:21;;;;;;;6.72;3.83;;;5.20;92.60;;;;;;5025982;28;20214;-47
2023/12/01 01:35:49;;;;;;;8.35;4.57;;;5.20;92.60;;;;;;5021179;28;20189;-47
2023/12/01 01:38:17;;;;;;;6.57;5.05;;;5.20;92.60;;;;;;5022390;28;20279;-48
2023/12/01 01:40:47;;;;;;;8.57;4.95;;;5.20;92.50;;;;;;5020695;28;20195;-44
2023/12/01 01:43:20;;;;;;;10.55;5.35;;;5.20;92.50;;;;;;5024225;28;20691;-43
2023/12/01 01:45:55;;;;;;;6.68;4.97;;;5.20;92.50;;;;;;5032611;28;20283;-44
2023/12/01 01:48:24;;;;;;;7.95;5.30;;;5.20;92.60;;;;;;5030265;28;20650;-43
2023/12/01 01:50:53;;;;;;;9.63;6.05;;;5.20;92.60;;;;;;5024932;28;20201;-46
2023/12/01 01:53:21;;;;;;;6.43;4.93;;;5.20;92.60;;;;;;5020217;28;20276;-45
2023/12/01 01:55:51;;;;;;;9.68;5.68;;;5.20;92.60;;;;;;5022423;28;20270;-44
2023/12/01 01:58:19;;;;;;;6.47;4.55;;;5.20;92.60;;;;;;5021291;28;20725;-43
2023/12/01 02:00:50;;;;;;;6.97;4.95;;;5.20;92.60;;;;;;5030096;28;20263;-44
2023/12/01 02:03:18;;;;;;;8.50;5.55;;;5.20;92.60;;;;;;5026048;28;20732;-46
2023/12/01 02:05:47;;;;;;;6.05;5.05;;;5.20;92.60;;;;;;5014559;28;20214;-44
2023/12/01 02:08:24;;;;;;;8.40;4.80;;;5.20;92.60;;;;;;5029653;28;20221;-43
2023/12/01 02:10:55;;;;;;;9.75;6.10;;;5.20;92.60;;;;;;5021092;28;20194;-45
2023/12/01 02:13:23;;;;;;;10.25;5.63;;;5.10;92.50;;;;;;5027142;28;20249;-44
2023/12/01 02:15:52;;;;;;;9.35;6.20;;;5.10;92.60;;;;;;5030637;28;20277;-45
2023/12/01 02:18:25;;;;;;;10.63;7.30;;;5.20;92.60;;;;;;5024685;28;20759;-46
2023/12/01 02:20:54;;;;;;;8.27;5.47;;;5.10;92.50;;;;;;5027162;28;20205;-43
2023/12/01 02:23:24;;;;;;;9.45;5.80;;;5.20;92.60;;;;;;5010809;28;20225;-46
2023/12/01 02:25:53;;;;;;;11.02;6.20;;;5.20;92.60;;;;;;5006696;28;20215;-44
2023/12/01 02:28:21;;;;;;;8.70;5.90;;;5.20;92.60;;;;;;5009736;28;20217;-45
2023/12/01 02:30:51;;;;;;;10.50;6.35;;;5.20;92.60;;;;;;5010545;28;20248;-45
2023/12/01 02:33:19;;;;;;;9.07;5.75;;;5.20;92.60;;;;;;5007461;28;20228;-46
2023/12/01 02:35:48;;;;;;;11.52;7.30;;;5.20;92.60;;;;;;5006349;28;20206;-45
2023/12/01 02:38:17;;;;;;;9.43;6.05;;;5.20;92.60;;;;;;5015129;28;20217;-46
2023/12/01 02:40:50;;;;;;;8.45;5.57;;;5.20;92.60;;;;;;5005940;28;20542;-44
2023/12/01 02:43:20;;;;;;;10.75;6.10;;;5.10;92.60;;;;;;5008327;28;20578;-46
2023/12/01 02:45:50;;;;;;;9.85;6.32;;;5.10;93.10;;;;;;5012001;28;20766;-44
2023/12/01 02:48:18;;;;;;;11.57;6.25;;;5.20;92.60;;;;;;5018442;28;20277;-46
2023/12/01 02:50:46;;;;;;;8.68;5.80;;;5.20;92.50;;;;;;5008877;28;20190;-44
2023/12/01 02:53:15;;;;;;;9.20;5.68;;;5.10;92.60;;;;;;5011018;28;20241;-44
2023/12/01 02:55:43;;;;;;;9.15;5.90;;;5.10;92.50;;;;;;5023440;28;20828;-43
2023/12/01 02:58:13;;;;;;;10.75;6.03;;;5.20;93.10;;;;;;5010948;28;20643;-45
2023/12/01 03:00:42;;;;;;;10.82;6.63;;;5.20;92.60;;;;;;5011017;28;20209;-46
2023/12/01 03:03:10;;;;;;;10.57;6.80;;;5.20;92.60;;;;;;5008368;28;20236;-43
2023/12/01 03:05:39;;;;;;;18.85;7.70;;;5.20;92.60;;;;;;5008494;28;20231;-44
2023/12/01 03:08:07;;;;;;;9.55;6.25;;;5.10;92.60;;;;;;5010602;28;20699;-44
2023/12/01 03:10:35;;;;;;;12.02;7.03;;;5.20;92.60;;;;;;5005907;28;20985;-46
2023/12/01 03:13:03;;;;;;;9.70;6.18;;;5.10;92.50;;;;;;5005010;28;20209;-46
2023/12/01 03:15:33;;;;;;;10.07;6.75;;;5.10;92.50;;;;;;5002991;28;20248;-45
2023/12/01 03:18:01;;;;;;;10.90;5.97;;;5.10;92.60;;;;;;5008546;28;20222;-49
2023/12/01 03:20:29;;;;;;;9.27;6.78;;;5.10;92.50;;;;;;5008887;28;20671;-44
2023/12/01 03:22:57;;;;;;;9.35;6.55;;;5.20;92.60;;;;;;5010261;28;20317;-45
2023/12/01 03:25:26;;;;;;;9.73;6.35;;;5.20;92.60;;;;;;5007779;28;20213;-44
2023/12/01 03:27:54;;;;;;;11.13;6.32;;;5.20;92.60;;;;;;5004694;28;20276;-49
2023/12/01 03:30:22;;;;;;;9.50;6.30;;;5.20;92.60;;;;;;5015463;28;20631;-45
2023/12/01 03:32:53;;;;;;;10.35;6.40;;;5.20;92.50;;;;;;5010401;28;20244;-44
2023/12/01 03:35:24;;;;;;;9.00;5.68;;;5.10;92.50;;;;;;5009138;28;20351;-45
2023/12/01 03:37:56;;;;;;;8.23;5.25;;;5.10;92.50;;;;;;5017638;28;20331;-44
2023/12/01 03:40:25;;;;;;;11.60;6.68;;;5.10;92.50;;;;;;5008831;28;20216;-46
2023/12/01 03:42:53;;;;;;;7.57;6.10;;;5.10;92.50;;;;;;5005136;28;20603;-45
2023/12/01 03:45:21;;;;;;;10.85;6.63;;;5.10;92.50;;;;;;5010494;28;20210;-43
2023/12/01 03:47:50;;;;;;;9.70;6.00;;;5.20;92.60;;;;;;5010652;28;20879;-44
2023/12/01 03:50:20;;;;;;;7.88;5.45;;;5.10;92.50;;;;;;5006305;28;20212;-44
2023/12/01 03:52:50;;;;;;;7.43;6.15;;;5.10;92.50;;;;;;5010276;28;20225;-46
2023/12/01 03:55:19;;;;;;;9.13;6.65;;;5.10;92.50;;;;;;5012707;28;20190;-47
2023/12/01 03:57:47;;;;;;;9.30;6.20;;;5.10;92.50;;;;;;5005018;28;20237;-46
2023/12/01 04:00:18;;;;;;;7.53;5.72;;;5.20;92.50;;;;;;5010397;28;20209;-43
2023/12/01 04:02:48;;;;;;;8.00;6.07;;;5.20;92.50;;;;;;5009151;28;20667;-44
2023/12/01 04:05:18;;;;;;;7.10;5.78;;;5.10;92.50;;;;;;5006767;28;20218;-44
2023/12/01 04:07:52;;;;;;;7.53;5.70;;;5.10;92.50;;;;;;5009305;28;20592;-45
2023/12/01 04:10:25;;;;;;;11.32;7.63;;;5.10;92.50;;;;;;5008711;28;20205;-48
2023/12/01 04:12:55;;;;;;;10.38;5.65;;;5.20;92.50;;;;;;5003817;28;20224;-44
2023/12/01 04:15:26;;;;;;;10.68;6.22;;;5.10;92.50;;;;;;5019343;28;20194;-43
2023/12/01 04:17:55;;;;;;;10.73;6.07;;;5.10;92.50;;;;;;5010219;28;20311;-44
2023/12/01 04:20:25;;;;;;;9.57;5.80;;;5.10;92.50;;;;;;5007687;28;20217;-46
2023/12/01 04:22:57;;;;;;;8.77;5.95;;;5.20;93.00;;;;;;5009972;28;20225;-44
2023/12/01 04:25:26;;;;;;;10.10;6.45;;;5.10;92.50;;;;;;5007611;28;20217;-44
2023/12/01 04:27:54;;;;;;;10.50;6.35;;;5.10;92.50;;;;;;5008992;28;20611;-44
2023/12/01 04:30:23;;;;;;;11.93;6.53;;;5.10;92.50;;;;;;5010781;28;20575;-45
2023/12/01 04:32:53;;;;;;;12.65;6.63;;;5.10;92.50;;;;;;5009746;28;20220;-43
2023/12/01 04:35:25;;;;;;;7.60;5.07;;;5.10;92.50;;;;;;5009404;28;20201;-44
2023/12/01 04:37:54;;;;;;;9.40;6.13;;;5.10;92.50;;;;;;5010324;28;20237;-43
2023/12/01 04:40:23;;;;;;;8.27;5.22;;;5.10;93.00;;;;;;5007552;28;20190;-46
2023/12/01 04:42:52;;;;;;;10.52;5.60;;;5.10;92.50;;;;;;5004844;28;20198;-43
2023/12/01 04:45:24;;;;;;;7.60;5.28;;;5.10;92.50;;;;;;5016460;28;20198;-47
2023/12/01 04:47:54;;;;;;;9.70;5.57;;;5.10;92.50;;;;;;5011860;28;20762;-46
2023/12/01 04:50:24;;;;;;;6.45;5.40;;;5.10;92.50;;;;;;5009459;28;20660;-43
2023/12/01 04:52:53;;;;;;;8.27;6.18;;;5.10;92.40;;;;;;5009456;28;20202;-44
2023/12/01 04:55:25;;;;;;;7.50;5.38;;;5.10;92.50;;;;;;5009254;28;20603;-44
2023/12/01 04:57:54;;;;;;;6.70;5.40;;;5.10;92.50;;;;;;5009505;28;20237;-44
2023/12/01 05:00:25;;;;;;;8.30;5.70;;;5.10;92.50;;;;;;5009502;28;20202;-45
2023/12/01 05:02:55;;;;;;;6.60;5.35;;;5.10;92.50;;;;;;5007953;28;20705;-45
2023/12/01 05:05:24;;;;;;;7.90;5.97;;;5.10;92.50;;;;;;5001197;28;20281;-46
2023/12/01 05:07:57;;;;;;;10.20;6.18;;;5.10;92.90;;;;;;5008466;28;20244;-45
2023/12/01 05:10:28;;;;;;;8.40;5.57;;;5.10;92.40;;;;;;5006347;28;20194;-45
2023/12/01 05:12:58;;;;;;;9.93;5.72;;;5.10;92.50;;;;;;5004055;28;20241;-44
2023/12/01 05:15:28;;;;;;;6.20;4.80;;;5.10;92.40;;;;;;5017398;28;20647;-44
2023/12/01 05:17:58;;;;;;;7.88;4.95;;;5.10;92.50;;;;;;5015145;28;20226;-45
2023/12/01 05:20:28;;;;;;;7.95;5.57;;;5.10;92.40;;;;;;5008120;28;20192;-43
2023/12/01 05:22:57;;;;;;;11.05;6.20;;;5.10;92.40;;;;;;5016422;28;20217;-43
2023/12/01 05:25:32;;;;;;;7.70;5.32;;;5.10;92.40;;;;;;5008751;28;20190;-45
2023/12/01 05:28:02;;;;;;;15.30;6.60;;;5.10;92.40;;;;;;5004142;28;20709;-43
2023/12/01 05:30:31;;;;;;;7.25;5.35;;;5.10;92.40;;;;;;5009885;28;20277;-44
2023/12/01 05:32:59;;;;;;;9.10;5.80;;;5.10;92.40;;;;;;5010071;28;20217;-43
2023/12/01 05:35:28;;;;;;;6.10;5.50;;;5.10;92.40;;;;;;5007171;28;20201;-45
2023/12/01 05:37:58;;;;;;;8.10;5.40;;;5.10;92.40;;;;;;5013734;28;20640;-44
2023/12/01 05:40:29;;;;;;;8.10;5.18;;;5.10;92.40;;;;;;5011999;28;20194;-45
2023/12/01 05:42:58;;;;;;;8.20;5.35;;;5.10;92.40;;;;;;5009122;28;20229;-44
2023/12/01 05:45:27;;;;;;;7.97;5.25;;;5.10;92.40;;;;;;5013874;28;20742;-44
2023/12/01 05:47:57;;;;;;;10.38;6.35;;;5.10;92.40;;;;;;5013003;28;20318;-46
2023/12/01 05:50:26;;;;;;;6.75;5.05;;;5.10;92.40;;;;;;5005582;28;20206;-44
2023/12/01 05:52:56;;;;;;;7.93;5.35;;;5.10;92.40;;;;;;5013128;28;20438;-43
2023/12/01 05:55:27;;;;;;;6.32;4.63;;;5.10;92.40;;;;;;5012513;28;20208;-44
2023/12/01 05:57:57;;;;;;;7.47;5.88;;;5.10;92.40;;;;;;5008171;28;20312;-44
2023/12/01 06:00:29;;;;;;;9.88;5.78;;;5.10;92.40;;;;;;5012662;28;20225;-46
2023/12/01 06:02:59;;;;;;;5.72;4.60;;;5.10;92.40;;;;;;5010904;28;20218;-44
2023/12/01 06:05:28;;;;;;;7.10;5.00;;;5.10;92.40;;;;;;5005094;28;20300;-44
2023/12/01 06:07:58;;;;;;;7.20;5.70;;;5.10;92.40;;;;;;5011216;28;20217;-46
2023/12/01 06:10:31;;;;;;;7.10;5.00;;;5.10;92.40;;;;;;5009750;28;20193;-45
2023/12/01 06:12:59;;;;;;;8.40;5.57;;;5.10;92.30;;;;;;5008939;28;20229;-45
2023/12/01 06:15:30;;;;;;;6.00;4.88;;;5.10;92.40;;;;;;5011604;28;20229;-45
2023/12/01 06:18:00;;;;;;;7.10;4.82;;;5.10;92.40;;;;;;5013289;28;20233;-44
2023/12/01 06:20:30;;;;;;;8.23;6.25;;;5.10;92.40;;;;;;5010217;28;20204;-45
2023/12/01 06:23:00;;;;;;;7.90;4.80;;;5.10;92.30;;;;;;5007439;28;20226;-46
2023/12/01 06:25:31;;;;;;;6.15;5.47;;;5.10;92.30;;;;;;5010181;28;20224;-45
2023/12/01 06:28:02;;;;;;;7.85;5.30;;;5.10;92.40;;;;;;5008040;28;20236;-43
2023/12/01 06:30:33;;;;;;;7.95;5.53;;;5.10;92.30;;;;;;5014765;28;20194;-43
2023/12/01 06:33:02;;;;;;;7.32;5.40;;;5.10;92.30;;;;;;5012506;28;20272;-44
2023/12/01 06:35:30;;;;;;;8.82;5.10;;;5.10;92.30;;;;;;5008895;28;20194;-46
2023/12/01 06:37:58;;;;;;;8.82;5.68;;;5.10;92.30;;;;;;5012336;28;20221;-43
2023/12/01 06:40:26;;;;;;;6.45;4.95;;;5.10;92.40;;;;;;5010610;28;20193;-44
2023/12/01 06:42:56;;;;;;;7.75;5.18;;;5.10;92.40;;;;;;5007288;28;20607;-43
2023/12/01 06:45:26;;;;;;;7.18;4.90;;;5.10;92.30;;;;;;5016793;28;20209;-46
2023/12/01 06:47:59;;;;;;;7.63;5.07;;;5.10;92.30;;;;;;5020739;28;20236;-46
2023/12/01 06:50:30;;;;;;;7.00;4.82;;;5.10;92.30;;;;;;5006071;28;20198;-44
2023/12/01 06:53:00;;;;;;;7.38;5.40;;;5.10;92.40;;;;;;5013446;28;20580;-46
2023/12/01 06:55:28;;;;;;;7.45;5.18;;;5.10;92.30;;;;;;5017268;28;20194;-43
2023/12/01 06:57:58;;;;;;;7.43;5.20;;;5.10;92.30;;;;;;5010969;28;20244;-45
2023/12/01 07:00:30;;;;;;;6.78;5.05;;;5.10;92.30;;;;;;5011926;28;20666;-43
2023/12/01 07:03:01;;;;;;;7.82;5.80;;;5.10;92.30;;;;;;5009577;28;20765;-43
2023/12/01 07:05:31;;;;;;;10.95;5.65;;;5.10;92.40;;;;;;5008635;28;20224;-45
2023/12/01 07:08:00;;;;;;;9.45;5.55;;;5.10;92.40;;;;;;5009712;28;20226;-44
2023/12/01 07:10:29;;;;;;;7.25;5.25;;;5.10;92.30;;;;;;5009009;28;20193;-45
2023/12/01 07:12:59;;;;;;;7.85;5.25;;;5.00;92.30;;;;;;5006051;28;20685;-46
2023/12/01 07:15:27;;;;;;;7.80;5.40;;;5.10;92.30;;;;;;5012744;28;20454;-43
2023/12/01 07:17:57;;;;;;;6.57;5.20;;;5.10;92.30;;;;;;5010844;28;20214;-44
2023/12/01 07:20:25;;;;;;;6.45;4.68;;;5.00;92.30;;;;;;5009908;28;20670;-43
2023/12/01 07:22:54;;;;;;;9.30;6.38;;;5.00;92.30;;;;;;5006838;28;20202;-47
2023/12/01 07:25:23;;;;;;;8.50;5.80;;;5.10;92.30;;;;;;5013039;28;20621;-46
2023/12/01 07:27:55;;;;;;;6.60;4.55;;;5.10;92.40;;;;;;5011712;28;20221;-44
2023/12/01 07:30:27;;;;;;;7.55;5.40;;;5.10;92.30;;;;;;5012822;28;20655;-46
2023/12/01 07:32:57;;;;;;;7.45;6.70;;;5.00;92.30;;;;;;5009393;28;20660;-46
2023/12/01 07:35:25;;;;;;;9.05;5.60;;;5.10;92.40;;;;;;5015485;28;20256;-43
2023/12/01 07:37:54;;;;;;;8.40;5.47;;;5.00;92.30;;;;;;5011688;28;20395;-44
2023/12/01 07:40:23;;;;;;;6.30;4.60;;;5.00;92.30;;;;;;5010579;28;20256;-45
2023/12/01 07:42:55;;;;;;;7.30;6.57;;;5.00;92.30;;;;;;5006561;28;20293;-44
2023/12/01 07:45:25;;;;;;;9.48;5.35;;;5.10;92.30;;;;;;5017411;28;20202;-45
2023/12/01 07:47:55;;;;;;;10.23;6.32;;;5.00;92.30;;;;;;5011504;28;20703;-45
2023/12/01 07:50:25;;;;;;;7.38;5.40;;;5.00;92.30;;;;;;5009936;28;20661;-44
2023/12/01 07:52:55;;;;;;;9.30;5.32;;;5.10;92.30;;;;;;5011344;28;20194;-44
2023/12/01 07:55:24;;;;;;;10.23;5.85;;;5.00;92.30;;;;;;5009820;28;20198;-45
2023/12/01 07:57:52;;;;;;;7.38;5.32;;;5.00;92.30;;;;;;5019058;28;20229;-46
2023/12/01 08:00:20;;;;;;;7.10;4.70;;;5.00;92.30;;;;;;5010411;28;20201;-44
2023/12/01 08:02:52;;;;;;;6.32;4.65;;;5.00;92.30;;;;;;5013561;28;20214;-47
2023/12/01 08:05:23;;;;;;;8.32;4.95;;;5.00;92.30;;;;;;5009896;28;20202;-45
2023/12/01 08:07:53;;;;;;;6.15;4.90;;;5.10;92.30;;;;;;5008800;28;20218;-44
2023/12/01 08:10:25;;;;;;;6.30;4.88;;;5.00;92.30;;;;;;5015106;28;20205;-44
2023/12/01 08:12:56;;;;;;;6.88;5.65;;;5.00;92.30;;;;;;5006564;28;20209;-44
2023/12/01 08:15:25;;;;;;;7.43;4.80;;;5.00;92.30;;;;;;5012323;28;20201;-43
2023/12/01 08:17:59;;;;;;;8.10;5.15;;;5.00;92.30;;;;;;5011705;28;20305;-44
2023/12/01 08:20:31;;;;;;;6.80;5.05;;;5.00;92.30;;;;;;5005462;28;20626;-44
2023/12/01 08:22:59;;;;;;;8.07;5.63;;;5.00;92.30;;;;;;5014480;28;20715;-44
2023/12/01 08:25:29;;;;;;;7.88;4.68;;;5.00;92.30;;;;;;5014284;28;20247;-44
2023/12/01 08:27:58;;;;;;;8.82;5.80;;;5.00;92.30;;;;;;5011050;28;20659;-44
2023/12/01 08:30:26;;;;;;;7.30;5.32;;;5.00;92.30;;;;;;5013462;28;20281;-47
2023/12/01 08:32:55;;;;;;;6.47;5.03;;;5.00;92.30;;;;;;5010837;28;20591;-44
2023/12/01 08:35:26;;;;;;;6.63;5.25;;;5.00;92.30;;;;;;5013401;28;20560;-44
2023/12/01 08:37:56;;;;;;;7.40;5.28;;;5.00;92.30;;;;;;5010475;28;20237;-43
2023/12/01 08:40:25;;;;;;;7.50;5.35;;;5.00;92.30;;;;;;5010698;28;20207;-47
2023/12/01 08:42:55;;;;;;;7.85;5.05;;;5.00;92.30;;;;;;5006549;28;20198;-43
2023/12/01 08:45:23;;;;;;;9.25;5.45;;;5.00;92.30;;;;;;5012584;28;20206;-44
2023/12/01 08:47:52;;;;;;;9.10;5.03;;;5.00;92.30;;;;;;5011462;28;20214;-44
2023/12/01 08:50:21;;;;;;;9.02;5.57;;;5.00;92.30;;;;;;5008274;28;20225;-45
2023/12/01 08:52:51;;;;;;;7.10;5.22;;;5.00;92.30;;;;;;5010881;28;20633;-43
2023/12/01 08:55:22;;;;;;;6.45;5.43;;;5.00;92.30;;;;;;5013827;28;20194;-47
2023/12/01 08:57:50;;;;;;;8.15;5.70;;;5.00;92.30;;;;;;5007282;28;20214;-44
2023/12/01 09:00:21;;;;;;;5.90;4.50;;;5.00;92.30;;;;;;5011153;28;20190;-45
2023/12/01 09:02:52;;;;;;;7.72;5.50;;;5.00;92.70;;;;;;5009114;28;20205;-45
2023/12/01 09:05:21;;;;;;;9.10;6.05;;;5.00;92.20;;;;;;5007985;28;20194;-44
2023/12/01 09:07:54;;;;;;;6.22;4.90;;;5.00;92.20;;;;;;5009182;28;20222;-47
2023/12/01 09:10:22;;;;;;;7.63;5.57;;;5.00;92.20;;;;;;5011199;28;20226;-45
2023/12/01 09:12:51;;;;;;;8.10;5.05;;;5.00;92.30;;;;;;5006239;28;20260;-45
2023/12/01 09:15:19;;;;;;;5.40;4.75;;;5.00;92.30;;;;;;5017182;28;20244;-44
2023/12/01 09:17:51;;;;;;;8.18;5.15;;;5.00;92.20;;;;;;5012227;28;20213;-45
2023/12/01 09:20:20;;;;;;;6.13;4.28;;;5.00;92.70;;;;;;5012676;28;20198;-45
2023/12/01 09:22:48;;;;;;;5.82;4.00;;;5.00;92.30;;;;;;5014565;28;20198;-44
2023/12/01 09:25:18;;;;;;;7.07;5.05;;;5.00;92.20;;;;;;5016453;28;20209;-45
2023/12/01 09:27:47;;;;;;;9.73;5.22;;;5.00;92.30;;;;;;5014344;28;20644;-44
2023/12/01 09:30:16;;;;;;;7.72;5.05;;;5.00;92.30;;;;;;5015977;28;20198;-44
2023/12/01 09:32:46;;;;;;;6.85;4.40;;;5.00;92.20;;;;;;5014817;28;20202;-44
2023/12/01 09:35:16;;;;;;;7.35;5.28;;;5.00;92.20;;;;;;5011305;28;20190;-44
2023/12/01 09:38:04;;;;;;;4.95;4.20;;;5.00;92.30;;;;;;5015003;28;20228;-44
2023/12/01 09:40:37;;;;;;;6.78;4.55;;;5.00;92.20;;;;;;5011260;28;20535;-44
2023/12/01 09:43:05;;;;;;;6.60;4.63;;;5.00;92.20;;;;;;5011597;28;20293;-48
2023/12/01 09:45:38;;;;;;;6.70;5.43;;;5.00;92.20;;;;;;5013814;28;20209;-44
2023/12/01 09:48:09;;;;;;;7.28;4.40;;;5.00;92.20;;;;;;5014906;28;20305;-44
2023/12/01 09:50:37;;;;;;;6.90;4.60;;;5.00;92.30;;;;;;5011565;28;20221;-43
2023/12/01 09:53:05;;;;;;;5.32;4.10;;;5.00;92.20;;;;;;5011283;28;20218;-45
2023/12/01 09:55:35;;;;;;;7.50;4.53;;;5.00;92.30;;;;;;5015788;28;20572;-44
2023/12/01 09:58:04;;;;;;;7.28;4.97;;;5.00;92.20;;;;;;5013340;28;20230;-44
2023/12/01 10:00:32;;;;;;;6.82;5.28;;;5.00;92.10;;;;;;5018589;28;20659;-45
2023/12/01 10:03:01;;;;;;;7.60;4.40;;;5.00;92.10;;;;;;5016753;28;20308;-46
2023/12/01 10:05:32;;;;;;;6.07;4.50;;;5.00;92.20;;;;;;5008647;28;20194;-45
2023/12/01 10:08:00;;;;;;;6.05;4.07;;;5.00;92.20;;;;;;5012516;28;20276;-45
2023/12/01 10:10:28;;;;;;;7.05;4.80;;;5.00;92.20;;;;;;5010897;28;20218;-46
2023/12/01 10:13:02;;;;;;;7.50;5.30;;;5.00;92.20;;;;;;5007794;28;20198;-45
2023/12/01 10:15:30;;;;;;;5.88;4.38;;;5.00;92.20;;;;;;5016104;28;20194;-44
2023/12/01 10:18:10;;;;;;;7.20;5.20;;;5.00;92.20;;;;;;5020173;28;20308;-44
2023/12/01 10:20:57;;;;;;;6.25;4.47;;;5.00;92.20;;;;;;5006698;28;20282;-46
2023/12/01 10:23:28;;;;;;;6.35;4.13;;;5.00;92.20;;;;;;5022781;28;20225;-44
2023/12/01 10:25:57;;;;;;;6.93;4.93;;;5.00;92.20;;;;;;5007867;28;20894;-44
2023/12/01 10:28:39;;;;;;;4.97;3.80;;;5.00;92.20;;;;;;5014062;28;20953;-45
2023/12/01 10:31:09;;;;;;;6.57;4.60;;;5.00;92.20;;;;;;5014495;28;20224;-45
2023/12/01 10:33:37;;;;;;;6.50;4.20;;;5.00;92.20;;;;;;5015953;28;20256;-44
2023/12/01 10:36:08;;;;;;;5.80;3.60;;;5.00;92.20;;;;;;5011135;28;20256;-44
2023/12/01 10:38:37;;;;;;;7.03;4.97;;;5.00;92.10;;;;;;5014385;28;20715;-45
2023/12/01 10:41:06;;;;;;;6.60;4.35;;;5.00;92.10;;;;;;5007252;28;20197;-44
2023/12/01 10:43:36;;;;;;;4.90;3.90;;;5.00;92.20;;;;;;5015798;28;20224;-45
2023/12/01 10:46:06;;;;;;;6.15;4.40;;;5.00;92.20;;;;;;5015109;28;20260;-43
2023/12/01 10:48:36;;;;;;;8.13;5.22;;;5.00;92.20;;;;;;5011467;28;20226;-44
2023/12/01 10:51:05;;;;;;;6.45;4.53;;;5.00;92.20;;;;;;5011018;28;20194;-44
2023/12/01 10:53:36;;;;;;;5.75;3.90;;;5.00;92.20;;;;;;5013956;28;20221;-43
2023/12/01 10:56:08;;;;;;;7.25;4.85;;;5.00;92.20;;;;;;5013004;28;20194;-43
2023/12/01 10:58:38;;;;;;;5.57;3.92;;;5.00;92.20;;;;;;5013839;28;20695;-48
2023/12/01 11:01:07;;;;;;;4.65;3.38;;;5.00;92.20;;;;;;5018822;28;20213;-45
2023/12/01 11:03:38;;;;;;;5.18;4.53;;;5.00;92.20;;;;;;5012622;28;20218;-45
2023/12/01 11:06:11;;;;;;;4.75;3.70;;;5.00;92.10;;;;;;5009904;28;20197;-45
2023/12/01 11:08:46;;;;;;;7.75;4.15;;;5.00;92.20;;;;;;5014185;28;20794;-45
2023/12/01 11:11:20;;;;;;;5.88;3.80;;;5.00;92.10;;;;;;5011441;28;20197;-45
2023/12/01 11:14:09;;;;;;;3.97;3.45;;;5.00;92.20;;;;;;5018085;28;20213;-45
2023/12/01 11:16:38;;;;;;;4.30;2.80;;;5.00;92.10;;;;;;5020837;28;20252;-43
2023/12/01 11:19:08;;;;;;;6.70;4.00;;;5.00;92.10;;;;;;5019549;28;20217;-46
2023/12/01 11:21:36;;;;;;;5.93;3.75;;;5.00;92.10;;;;;;5018255;28;20198;-45
2023/12/01 11:24:26;;;;;;;4.85;3.70;;;5.00;92.10;;;;;;5013366;28;20268;-43
2023/12/01 11:27:00;;;;;;;5.57;3.70;;;5.00;92.10;;;;;;4994417;28;20292;-46
2023/12/01 11:29:33;;;;;;;5.18;3.95;;;5.00;92.10;;;;;;5012847;28;20313;-44
2023/12/01 11:32:03;;;;;;;4.00;3.28;;;5.00;92.10;;;;;;5012848;28;20248;-44
2023/12/01 11:34:32;;;;;;;5.43;3.63;;;5.00;92.10;;;;;;5009538;28;20718;-45
2023/12/01 11:37:05;;;;;;;6.30;3.70;;;5.00;92.10;;;;;;5012774;28;20289;-44
2023/12/01 11:39:34;;;;;;;5.22;3.85;;;5.00;92.10;;;;;;5011050;28;20225;-46
2023/12/01 11:42:13;;;;;;;5.95;3.30;;;5.00;92.10;;;;;;5005253;28;20202;-45
2023/12/01 11:44:44;;;;;;;4.90;3.47;;;4.90;92.10;;;;;;5009969;28;20217;-43
2023/12/01 11:47:14;;;;;;;4.95;3.95;;;5.00;92.10;;;;;;5014290;28;20208;-46
2023/12/01 11:49:44;;;;;;;5.63;4.10;;;5.00;92.10;;;;;;5010227;28;20304;-46
2023/12/01 11:52:14;;;;;;;4.50;3.40;;;4.90;92.10;;;;;;5012030;28;20209;-44
2023/12/01 11:54:43;;;;;;;4.10;3.08;;;5.00;92.10;;;;;;5006754;28;20272;-45
2023/12/01 11:57:17;;;;;;;6.30;3.90;;;5.00;92.10;;;;;;5014109;28;20236;-44
2023/12/01 11:59:49;;;;;;;4.88;3.50;;;5.00;92.10;;;;;;5005578;28;20291;-44
2023/12/01 12:02:18;;;;;;;4.03;3.10;;;5.00;92.10;;;;;;5010610;28;20194;-43
2023/12/01 12:04:47;;;;;;;4.28;3.30;;;5.00;92.10;;;;;;5007763;28;20710;-46
2023/12/01 12:07:17;;;;;;;3.28;2.80;;;5.00;92.10;;;;;;5013402;28;20301;-44
2023/12/01 12:09:45;;;;;;;4.30;2.88;;;5.00;92.10;;;;;;5012202;28;20218;-44
2023/12/01 12:12:14;;;;;;;4.55;3.58;;;5.00;92.10;;;;;;5006309;28;20202;-44
2023/12/01 12:14:44;;;;;;;4.82;3.35;;;5.00;92.10;;;;;;5016501;28;20639;-44
2023/12/01 12:17:14;;;;;;;5.18;3.35;;;5.00;92.10;;;;;;5014677;28;20214;-44
2023/12/01 12:19:44;;;;;;;3.70;2.92;;;5.00;92.10;;;;;;5012245;28;20268;-46
2023/12/01 12:22:20;;;;;;;5.18;3.17;;;5.00;92.10;;;;;;5016230;28;20198;-44
2023/12/01 12:24:50;;;;;;;3.92;3.15;;;4.90;92.00;;;;;;5017415;28;20604;-44
2023/12/01 12:27:19;;;;;;;3.35;2.70;;;5.00;92.10;;;;;;5006481;28;20221;-44
2023/12/01 12:29:48;;;;;;;5.07;3.17;;;5.00;92.10;;;;;;5017303;28;20221;-47
2023/12/01 12:32:19;;;;;;;3.65;2.90;;;4.90;92.00;;;;;;5013808;28;20210;-45
2023/12/01 12:34:47;;;;;;;4.43;3.38;;;4.90;92.00;;;;;;5012975;28;20233;-46
2023/12/01 12:37:17;;;;;;;4.38;3.97;;;4.90;92.00;;;;;;5012647;28;20197;-45
2023/12/01 12:39:45;;;;;;;4.78;2.70;;;4.90;92.00;;;;;;5013741;28;20698;-46
2023/12/01 12:42:16;;;;;;;4.47;3.25;;;4.90;92.10;;;;;;5012815;28;20209;-44
2023/12/01 12:44:45;;;;;;;5.05;3.38;;;5.00;92.10;;;;;;5020804;28;20308;-43
2023/12/01 12:47:13;;;;;;;4.32;3.90;;;4.90;91.80;;;;;;5019653;28;20208;-47
2023/12/01 12:49:43;;;;;;;5.65;5.03;;;4.90;91.00;;;;;;5003449;28;20230;-46
2023/12/01 12:52:12;;;;;;;6.10;4.32;;;4.90;91.20;;;;;;5017457;28;20193;-45
2023/12/01 12:54:41;;;;;;;6.35;4.97;;;4.90;91.20;;;;;;5016706;28;20216;-43
2023/12/01 12:57:10;;;;;;;5.22;4.07;;;4.90;91.30;;;;;;5009970;28;20186;-45
2023/12/01 12:59:38;;;;;;;5.43;4.88;;;4.90;91.40;;;;;;5016510;28;20222;-46
2023/12/01 13:02:06;;;;;;;4.43;4.10;;;4.90;91.40;;;;;;5015534;28;20273;-45
2023/12/01 13:04:34;;;;;;;5.35;4.43;;;4.90;91.40;;;;;;5015349;28;20213;-45
2023/12/01 13:07:04;;;;;;;6.13;5.03;;;4.90;91.40;;;;;;5013144;28;20201;-44
2023/12/01 13:09:33;;;;;;;4.22;3.80;;;4.90;91.40;;;;;;5013236;28;20300;-44